createdAt,value
2018-08-10T00:00:45.858Z,17.40
2018-08-10T00:03:14.743Z,17.30
2018-08-10T00:05:43.634Z,17.20
2018-08-10T00:08:12.186Z,17.20
2018-08-10T00:10:40.918Z,17.10
2018-08-10T00:13:09.503Z,17.10
2018-08-10T00:15:38.351Z,17.10
2018-08-10T00:18:06.936Z,17.10
2018-08-10T00:20:35.536Z,17.10
2018-08-10T00:23:04.103Z,17.10
2018-08-10T00:25:32.952Z,17.10
2018-08-10T00:28:01.544Z,17.10
2018-08-10T00:30:30.067Z,17.10
2018-08-10T00:32:58.638Z,17.00
2018-08-10T00:35:27.203Z,17.00
2018-08-10T00:37:55.722Z,17.10
2018-08-10T00:40:24.489Z,17.00
2018-08-10T00:42:53.087Z,17.00
2018-08-10T00:45:21.954Z,17.00
2018-08-10T00:47:50.514Z,17.00
2018-08-10T00:50:19.156Z,17.00
2018-08-10T00:52:48.680Z,17.00
2018-08-10T00:55:18.498Z,16.80
2018-08-10T00:57:47.727Z,16.80
2018-08-10T01:00:20.469Z,16.80
2018-08-10T01:02:50.791Z,16.80
2018-08-10T01:05:19.730Z,16.70
2018-08-10T01:07:48.644Z,16.70
2018-08-10T01:10:19.404Z,16.70
2018-08-10T01:12:47.986Z,16.70
2018-08-10T01:15:17.708Z,16.60
2018-08-10T01:17:46.808Z,16.60
2018-08-10T01:20:20.715Z,16.60
2018-08-10T01:22:55.712Z,16.60
2018-08-10T01:25:25.361Z,16.60
2018-08-10T01:27:58.164Z,16.60
2018-08-10T01:30:27.955Z,16.60
2018-08-10T01:32:57.167Z,16.60
2018-08-10T01:35:26.627Z,16.60
2018-08-10T01:37:56.123Z,16.60
2018-08-10T01:40:24.655Z,16.60
2018-08-10T01:42:53.588Z,16.60
2018-08-10T01:45:22.139Z,16.60
2018-08-10T01:47:50.692Z,16.60
2018-08-10T01:50:19.177Z,16.60
2018-08-10T01:52:48.306Z,16.50
2018-08-10T01:55:17.151Z,16.50
2018-08-10T01:57:45.751Z,16.50
2018-08-10T02:00:14.247Z,16.40
2018-08-10T02:02:42.802Z,16.50
2018-08-10T02:05:13.498Z,16.40
2018-08-10T02:07:42.343Z,16.40
2018-08-10T02:10:12.870Z,16.40
2018-08-10T02:12:42.110Z,16.30
2018-08-10T02:15:13.568Z,16.30
2018-08-10T02:17:56.862Z,16.30
2018-08-10T02:20:26.024Z,16.40
2018-08-10T02:22:55.124Z,16.40
2018-08-10T02:25:23.767Z,16.40
2018-08-10T02:27:52.473Z,16.40
2018-08-10T02:30:21.834Z,16.40
2018-08-10T02:32:51.028Z,16.30
2018-08-10T02:35:19.629Z,16.20
2018-08-10T02:37:48.169Z,16.10
2018-08-10T02:40:18.843Z,16.10
2018-08-10T02:42:48.255Z,16.10
2018-08-10T02:45:17.144Z,16.10
2018-08-10T02:47:46.539Z,16.00
2018-08-10T02:50:15.152Z,16.00
2018-08-10T02:52:44.391Z,16.00
2018-08-10T02:55:13.338Z,16.00
2018-08-10T02:57:42.488Z,16.00
2018-08-10T03:00:12.776Z,16.00
2018-08-10T03:02:41.643Z,16.00
2018-08-10T03:05:10.537Z,16.00
2018-08-10T03:07:39.328Z,16.00
2018-08-10T03:10:09.148Z,15.90
2018-08-10T03:12:37.708Z,16.00
2018-08-10T03:15:08.330Z,16.00
2018-08-10T03:17:37.198Z,15.90
2018-08-10T03:20:06.700Z,16.00
2018-08-10T03:22:35.603Z,15.90
2018-08-10T03:25:05.039Z,15.90
2018-08-10T03:27:33.587Z,15.80
2018-08-10T03:30:02.100Z,15.80
2018-08-10T03:32:30.972Z,15.80
2018-08-10T03:34:59.494Z,15.80
2018-08-10T03:37:27.964Z,15.80
2018-08-10T03:39:56.826Z,15.70
2018-08-10T03:42:25.340Z,15.60
2018-08-10T03:44:54.305Z,15.70
2018-08-10T03:47:22.850Z,15.60
2018-08-10T03:49:51.415Z,15.60
2018-08-10T03:52:20.064Z,15.60
2018-08-10T03:54:48.611Z,15.50
2018-08-10T03:57:17.157Z,15.50
2018-08-10T03:59:46.024Z,15.50
2018-08-10T04:02:14.791Z,15.50
2018-08-10T04:04:43.691Z,15.50
2018-08-10T04:07:12.537Z,15.50
2018-08-10T04:09:41.429Z,15.40
2018-08-10T04:12:09.958Z,15.40
2018-08-10T04:14:38.486Z,15.40
2018-08-10T04:17:11.559Z,15.40
2018-08-10T04:19:40.320Z,15.30
2018-08-10T04:22:08.937Z,15.30
2018-08-10T04:24:37.450Z,15.20
2018-08-10T04:27:06.317Z,15.20
2018-08-10T04:29:34.864Z,15.20
2018-08-10T04:32:03.535Z,15.20
2018-08-10T04:34:32.697Z,15.10
2018-08-10T04:37:01.195Z,15.10
2018-08-10T04:39:29.810Z,15.10
2018-08-10T04:41:58.369Z,15.00
2018-08-10T04:44:26.896Z,15.10
2018-08-10T04:46:55.744Z,15.00
2018-08-10T04:49:24.250Z,15.00
2018-08-10T04:51:52.755Z,15.00
2018-08-10T04:54:21.658Z,15.00
2018-08-10T04:56:50.514Z,14.90
2018-08-10T04:59:19.075Z,15.00
2018-08-10T05:01:47.982Z,15.00
2018-08-10T05:04:16.541Z,15.10
2018-08-10T05:06:45.086Z,15.10
2018-08-10T05:09:14.205Z,15.10
2018-08-10T05:11:43.923Z,15.10
2018-08-10T05:14:12.866Z,15.10
2018-08-10T05:16:42.113Z,15.20
2018-08-10T05:19:10.623Z,15.10
2018-08-10T05:21:39.196Z,15.20
2018-08-10T05:24:08.157Z,15.20
2018-08-10T05:26:36.738Z,15.30
2018-08-10T05:29:05.990Z,15.30
2018-08-10T05:31:35.355Z,15.30
2018-08-10T05:34:04.024Z,15.30
2018-08-10T05:36:32.588Z,15.40
2018-08-10T05:39:01.486Z,15.40
2018-08-10T05:41:30.020Z,15.50
2018-08-10T05:43:58.540Z,15.50
2018-08-10T05:46:27.236Z,15.50
2018-08-10T05:48:55.884Z,15.60
2018-08-10T05:51:24.373Z,15.60
2018-08-10T05:53:52.887Z,15.70
2018-08-10T05:56:21.404Z,15.80
2018-08-10T05:58:49.902Z,15.80
2018-08-10T06:01:18.510Z,15.90
2018-08-10T06:03:47.469Z,16.00
2018-08-10T06:06:16.119Z,16.10
2018-08-10T06:08:44.632Z,16.20
2018-08-10T06:11:13.515Z,16.30
2018-08-10T06:13:41.980Z,16.30
2018-08-10T06:16:10.932Z,16.40
2018-08-10T06:18:39.689Z,16.60
2018-08-10T06:21:08.493Z,16.60
2018-08-10T06:23:37.286Z,16.70
2018-08-10T06:26:05.795Z,16.90
2018-08-10T06:28:34.538Z,17.10
2018-08-10T06:31:03.132Z,18.30
2018-08-10T06:33:32.359Z,19.10
2018-08-10T06:36:00.858Z,19.30
2018-08-10T06:38:29.434Z,20.30
2018-08-10T06:40:58.284Z,20.00
2018-08-10T06:43:26.812Z,19.70
2018-08-10T06:45:56.731Z,19.80
2018-08-10T06:48:25.471Z,20.20
2018-08-10T06:50:54.014Z,21.40
2018-08-10T06:53:23.991Z,22.70
2018-08-10T06:59:23.427Z,22.70
2018-08-10T07:01:51.924Z,22.00
2018-08-10T07:04:20.390Z,21.40
2018-08-10T07:06:48.934Z,22.30
2018-08-10T07:09:17.576Z,22.70
2018-08-10T07:11:46.341Z,22.40
2018-08-10T07:14:14.914Z,22.10
2018-08-10T07:16:43.439Z,21.90
2018-08-10T07:19:11.984Z,21.80
2018-08-10T07:21:40.645Z,22.20
2018-08-10T07:24:09.152Z,21.30
2018-08-10T07:26:37.654Z,21.00
2018-08-10T07:29:06.139Z,21.20
2018-08-10T07:31:34.858Z,21.20
2018-08-10T07:34:03.366Z,21.30
2018-08-10T07:36:31.887Z,21.10
2018-08-10T07:39:00.380Z,20.80
2018-08-10T07:41:28.891Z,20.40
2018-08-10T07:43:57.375Z,20.10
2018-08-10T07:46:25.892Z,19.70
2018-08-10T07:48:54.655Z,19.50
2018-08-10T07:51:23.140Z,19.30
2018-08-10T07:53:51.655Z,19.70
2018-08-10T07:56:23.019Z,21.10
2018-08-10T07:58:51.932Z,22.10
2018-08-10T08:01:20.617Z,22.70
2018-08-10T08:03:49.156Z,23.10
2018-08-10T08:06:17.802Z,23.00
2018-08-10T08:08:46.407Z,22.80
2018-08-10T08:11:15.300Z,22.50
2018-08-10T08:16:19.597Z,21.80
2018-08-10T08:18:48.129Z,21.60
2018-08-10T08:21:18.229Z,21.20
2018-08-10T08:23:46.751Z,21.00
2018-08-10T08:26:15.634Z,20.70
2018-08-10T08:28:44.423Z,20.60
2018-08-10T08:31:12.919Z,20.40
2018-08-10T08:34:14.040Z,20.40
2018-08-10T08:36:42.895Z,20.50
2018-08-10T08:43:36.239Z,20.70
2018-08-10T08:46:09.824Z,20.70
2018-08-10T08:48:55.379Z,20.50
2018-08-10T08:51:26.203Z,20.60
2018-08-10T08:56:10.330Z,20.70
2018-08-10T08:58:39.295Z,21.00
2018-08-10T09:01:08.551Z,21.60
2018-08-10T09:05:51.093Z,21.80
2018-08-10T09:08:20.044Z,22.00
2018-08-10T09:10:48.527Z,21.80
2018-08-10T09:13:17.266Z,21.40
2018-08-10T09:15:46.342Z,21.50
2018-08-10T09:18:15.399Z,21.70
2018-08-10T09:20:44.231Z,21.90
2018-08-10T09:23:13.113Z,22.10
2018-08-10T09:25:41.880Z,22.00
2018-08-10T09:28:10.422Z,21.80
2018-08-10T09:30:39.335Z,21.80
2018-08-10T09:33:08.275Z,21.70
2018-08-10T09:35:36.768Z,22.00
2018-08-10T09:38:05.806Z,22.40
2018-08-10T09:40:34.631Z,22.80
2018-08-10T09:43:03.192Z,22.90
2018-08-10T09:45:31.727Z,23.10
2018-08-10T09:48:00.218Z,23.40
2018-08-10T09:50:28.750Z,23.00
2018-08-10T09:53:01.660Z,22.70
2018-08-10T09:55:36.706Z,22.10
2018-08-10T09:58:10.846Z,22.00
2018-08-10T10:00:53.025Z,22.30
2018-08-10T10:03:24.472Z,22.70
2018-08-10T10:05:54.359Z,22.80
2018-08-10T10:08:23.769Z,23.10
2018-08-10T10:10:53.255Z,23.20
2018-08-10T10:13:24.350Z,23.30
2018-08-10T10:15:52.911Z,23.20
2018-08-10T10:18:21.409Z,22.90
2018-08-10T10:20:50.323Z,22.40
2018-08-10T10:23:18.843Z,22.30
2018-08-10T10:25:47.421Z,22.00
2018-08-10T10:28:19.462Z,22.10
2018-08-10T10:30:47.971Z,22.30
2018-08-10T10:33:16.830Z,22.50
2018-08-10T10:35:45.316Z,22.40
2018-08-10T10:38:14.442Z,21.90
2018-08-10T10:40:43.892Z,21.80
2018-08-10T10:43:12.722Z,21.80
2018-08-10T10:45:41.207Z,21.70
2018-08-10T10:48:10.003Z,22.10
2018-08-10T10:50:39.163Z,22.40
2018-08-10T10:53:08.555Z,22.80
2018-08-10T10:55:37.539Z,22.80
2018-08-10T10:58:06.559Z,22.70
2018-08-10T11:00:35.992Z,22.40
2018-08-10T11:03:04.547Z,22.40
2018-08-10T11:05:34.552Z,22.30
2018-08-10T11:08:03.063Z,22.60
2018-08-10T11:10:31.604Z,22.40
2018-08-10T11:13:00.508Z,22.30
2018-08-10T11:15:29.932Z,22.60
2018-08-10T11:17:58.811Z,22.80
2018-08-10T11:20:27.514Z,23.00
2018-08-10T11:22:56.997Z,23.00
2018-08-10T11:25:25.584Z,22.70
2018-08-10T11:27:54.616Z,22.80
2018-08-10T11:30:23.180Z,23.00
2018-08-10T11:32:52.084Z,23.20
2018-08-10T11:35:20.946Z,23.00
2018-08-10T11:37:49.502Z,22.90
2018-08-10T11:40:18.164Z,22.80
2018-08-10T11:42:46.692Z,22.50
2018-08-10T11:45:17.121Z,22.70
2018-08-10T11:47:45.677Z,22.80
2018-08-10T11:50:14.238Z,23.20
2018-08-10T11:52:42.722Z,23.50
2018-08-10T11:55:13.687Z,23.60
2018-08-10T11:57:43.321Z,23.60
2018-08-10T12:00:13.926Z,23.70
2018-08-10T12:02:42.852Z,23.80
2018-08-10T12:05:12.843Z,23.80
2018-08-10T12:07:41.747Z,23.60
2018-08-10T12:10:11.059Z,23.50
2018-08-10T12:12:40.118Z,23.10
2018-08-10T12:15:10.703Z,23.20
2018-08-10T12:17:40.012Z,23.30
2018-08-10T12:20:09.106Z,23.40
2018-08-10T12:22:37.724Z,23.50
2018-08-10T12:25:06.319Z,23.50
2018-08-10T12:27:34.947Z,23.60
2018-08-10T12:30:04.510Z,23.60
2018-08-10T12:32:33.399Z,23.50
2018-08-10T12:35:02.264Z,23.60
2018-08-10T12:37:32.698Z,23.70
2018-08-10T12:40:01.844Z,23.90
2018-08-10T12:42:30.716Z,23.90
2018-08-10T12:45:01.191Z,24.10
2018-08-10T12:47:30.007Z,24.20
2018-08-10T12:49:58.935Z,24.30
2018-08-10T12:52:27.480Z,24.00
2018-08-10T12:54:56.762Z,23.60
2018-08-10T12:57:26.243Z,23.20
2018-08-10T12:59:56.295Z,23.00
2018-08-10T13:02:25.046Z,22.80
2018-08-10T13:04:54.121Z,23.00
2018-08-10T13:07:22.971Z,23.40
2018-08-10T13:09:52.475Z,23.80
2018-08-10T13:12:22.654Z,23.80
2018-08-10T13:14:52.052Z,23.80
2018-08-10T13:17:20.583Z,23.90
2018-08-10T13:19:49.398Z,23.70
2018-08-10T13:22:19.246Z,23.30
2018-08-10T13:24:47.966Z,23.10
2018-08-10T13:27:16.510Z,23.10
2018-08-10T13:29:45.791Z,23.40
2018-08-10T13:32:14.647Z,23.50
2018-08-10T13:34:43.131Z,23.40
2018-08-10T13:37:12.095Z,23.20
2018-08-10T13:39:40.891Z,23.10
2018-08-10T13:42:09.895Z,22.90
2018-08-10T13:44:39.554Z,22.90
2018-08-10T13:47:10.110Z,23.00
2018-08-10T13:49:38.857Z,23.30
2018-08-10T13:52:07.501Z,23.50
2018-08-10T13:54:36.385Z,23.60
2018-08-10T13:57:05.235Z,23.50
2018-08-10T13:59:34.175Z,23.30
2018-08-10T14:02:03.156Z,22.90
2018-08-10T14:04:33.289Z,22.90
2018-08-10T14:07:02.115Z,23.10
2018-08-10T14:09:30.598Z,23.50
2018-08-10T14:11:59.293Z,23.60
2018-08-10T14:14:28.959Z,23.80
2018-08-10T14:16:57.935Z,23.60
2018-08-10T14:19:26.965Z,23.40
2018-08-10T14:21:57.340Z,23.30
2018-08-10T14:24:25.871Z,23.50
2018-08-10T14:26:54.482Z,23.60
2018-08-10T14:29:25.951Z,23.40
2018-08-10T14:31:54.547Z,23.50
2018-08-10T14:34:23.408Z,23.60
2018-08-10T14:36:52.386Z,23.80
2018-08-10T14:39:20.943Z,23.80
2018-08-10T14:41:50.690Z,23.50
2018-08-10T14:44:20.506Z,23.40
2018-08-10T14:46:49.218Z,23.50
2018-08-10T14:49:18.859Z,23.50
2018-08-10T14:51:47.374Z,23.50
2018-08-10T14:54:16.169Z,23.50
2018-08-10T14:56:44.991Z,23.50
2018-08-10T14:59:14.171Z,23.30
2018-08-10T15:01:43.072Z,23.30
2018-08-10T15:04:12.215Z,23.30
2018-08-10T15:06:40.760Z,23.20
2018-08-10T15:09:12.599Z,23.30
2018-08-10T15:11:43.090Z,23.30
2018-08-10T15:14:12.238Z,23.40
2018-08-10T15:16:42.147Z,23.40
2018-08-10T15:19:11.223Z,23.50
2018-08-10T15:21:40.492Z,23.40
2018-08-10T15:24:09.366Z,23.10
2018-08-10T15:26:38.828Z,23.10
2018-08-10T15:29:08.311Z,23.30
2018-08-10T15:31:36.790Z,23.30
2018-08-10T15:34:05.674Z,23.30
2018-08-10T15:36:34.787Z,23.20
2018-08-10T15:39:05.214Z,23.10
2018-08-10T15:41:34.066Z,23.30
2018-08-10T15:44:02.633Z,23.40
2018-08-10T15:46:33.074Z,23.40
2018-08-10T15:49:01.913Z,23.30
2018-08-10T15:51:30.838Z,23.20
2018-08-10T15:53:59.383Z,23.10
2018-08-10T15:56:28.914Z,22.90
2018-08-10T15:58:57.435Z,22.80
2018-08-10T16:01:25.927Z,22.80
2018-08-10T16:03:55.438Z,22.70
2018-08-10T16:06:24.969Z,22.70
2018-08-10T16:08:54.276Z,22.70
2018-08-10T16:11:24.281Z,22.80
2018-08-10T16:13:53.479Z,22.80
2018-08-10T16:16:22.803Z,22.80
2018-08-10T16:18:52.930Z,22.80
2018-08-10T16:21:21.504Z,22.80
2018-08-10T16:23:50.850Z,22.80
2018-08-10T16:26:19.709Z,22.70
2018-08-10T16:28:48.295Z,22.70
2018-08-10T16:31:17.411Z,22.60
2018-08-10T16:33:45.958Z,22.60
2018-08-10T16:36:14.516Z,22.50
2018-08-10T16:38:43.060Z,22.30
2018-08-10T16:41:12.294Z,22.10
2018-08-10T16:43:41.151Z,22.10
2018-08-10T16:46:09.754Z,22.10
2018-08-10T16:48:38.288Z,22.30
2018-08-10T16:51:07.281Z,22.40
2018-08-10T16:53:37.488Z,22.40
2018-08-10T16:56:06.079Z,22.40
2018-08-10T16:58:34.610Z,22.40
2018-08-10T17:01:03.146Z,22.30
2018-08-10T17:03:33.292Z,22.20
2018-08-10T17:06:02.707Z,22.10
2018-08-10T17:08:31.643Z,22.00
2018-08-10T17:11:02.060Z,21.90
2018-08-10T17:13:31.297Z,21.90
2018-08-10T17:16:01.107Z,21.90
2018-08-10T17:18:30.164Z,21.80
2018-08-10T17:20:59.529Z,21.80
2018-08-10T17:23:28.275Z,21.80
2018-08-10T17:25:58.022Z,21.90
2018-08-10T17:28:26.870Z,21.80
2018-08-10T17:30:55.735Z,21.70
2018-08-10T17:33:25.275Z,21.70
2018-08-10T17:35:55.350Z,21.70
2018-08-10T17:38:23.935Z,21.70
2018-08-10T17:40:53.846Z,21.70
2018-08-10T17:43:24.127Z,21.70
2018-08-10T17:45:54.051Z,21.70
2018-08-10T17:48:24.262Z,21.80
2018-08-10T17:50:55.618Z,21.80
2018-08-10T17:53:24.936Z,21.80
2018-08-10T17:55:56.000Z,21.80
2018-08-10T17:58:27.306Z,21.70
2018-08-10T18:00:57.474Z,21.70
2018-08-10T18:03:28.030Z,21.60
2018-08-10T18:05:57.968Z,21.50
2018-08-10T18:08:29.656Z,21.40
2018-08-10T18:10:58.715Z,21.40
2018-08-10T18:13:28.235Z,21.30
2018-08-10T18:15:57.387Z,21.30
2018-08-10T18:18:26.913Z,21.20
2018-08-10T18:20:56.759Z,21.10
2018-08-10T18:23:28.089Z,21.10
2018-08-10T18:25:56.711Z,21.00
2018-08-10T18:28:25.728Z,21.00
2018-08-10T18:30:55.082Z,20.90
2018-08-10T18:33:26.813Z,20.90
2018-08-10T18:35:55.835Z,20.80
2018-08-10T18:38:25.855Z,20.70
2018-08-10T18:40:56.215Z,20.70
2018-08-10T18:43:25.962Z,20.60
2018-08-10T18:45:55.084Z,20.60
2018-08-10T18:48:24.926Z,20.50
2018-08-10T18:50:54.536Z,20.50
2018-08-10T18:53:24.978Z,20.50
2018-08-10T18:55:54.696Z,20.40
2018-08-10T18:58:25.116Z,20.30
2018-08-10T19:00:54.475Z,20.30
2018-08-10T19:03:24.298Z,20.30
2018-08-10T19:05:53.259Z,20.20
2018-08-10T19:08:22.090Z,20.10
2018-08-10T19:10:52.103Z,20.10
2018-08-10T19:13:22.311Z,20.00
2018-08-10T19:15:51.569Z,19.90
2018-08-10T19:18:22.522Z,19.80
2018-08-10T19:20:53.564Z,19.70
2018-08-10T19:23:24.179Z,19.60
2018-08-10T19:25:53.349Z,19.60
2018-08-10T19:28:24.501Z,19.40
2018-08-10T19:30:53.161Z,19.40
2018-08-10T19:33:22.146Z,19.30
2018-08-10T19:35:53.164Z,19.20
2018-08-10T19:38:22.312Z,19.10
2018-08-10T19:40:52.336Z,19.00
2018-08-10T19:43:22.003Z,18.90
2018-08-10T19:45:50.954Z,18.80
2018-08-10T19:48:19.613Z,18.80
2018-08-10T19:50:48.353Z,18.80
2018-08-10T19:53:17.307Z,18.70
2018-08-10T19:55:46.774Z,18.70
2018-08-10T19:58:15.696Z,18.60
2018-08-10T20:00:44.264Z,18.60
2018-08-10T20:03:13.168Z,18.60
2018-08-10T20:05:42.003Z,18.50
2018-08-10T20:08:10.537Z,18.50
2018-08-10T20:10:39.168Z,18.40
2018-08-10T20:13:08.483Z,18.40
2018-08-10T20:15:38.270Z,18.40
2018-08-10T20:18:07.590Z,18.40
2018-08-10T20:20:36.197Z,18.40
2018-08-10T20:23:06.260Z,18.30
2018-08-10T20:25:34.802Z,18.40
2018-08-10T20:28:03.740Z,18.40
2018-08-10T20:30:33.127Z,18.50
2018-08-10T20:33:03.999Z,18.60
2018-08-10T20:35:33.893Z,18.60
2018-08-10T20:38:02.859Z,18.70
2018-08-10T20:40:32.400Z,18.70
2018-08-10T20:43:01.732Z,18.80
2018-08-10T20:45:30.790Z,18.80
2018-08-10T20:47:59.787Z,18.90
2018-08-10T20:50:29.514Z,19.00
2018-08-10T20:52:59.963Z,19.00
2018-08-10T20:55:30.122Z,19.10
2018-08-10T20:57:59.516Z,19.00
2018-08-10T21:00:28.127Z,19.00
2018-08-10T21:02:56.659Z,19.00
2018-08-10T21:05:25.874Z,18.90
2018-08-10T21:07:55.346Z,18.90
2018-08-10T21:10:23.926Z,18.80
2018-08-10T21:12:52.662Z,18.80
2018-08-10T21:15:21.271Z,18.70
2018-08-10T21:17:54.132Z,18.70
2018-08-10T21:20:23.017Z,18.70
2018-08-10T21:22:51.559Z,18.70
2018-08-10T21:25:20.395Z,18.70
2018-08-10T21:27:49.297Z,18.80
2018-08-10T21:30:21.334Z,18.80
2018-08-10T21:32:51.724Z,18.80
2018-08-10T21:35:20.251Z,18.80
2018-08-10T21:37:49.875Z,18.90
2018-08-10T21:40:18.527Z,18.90
2018-08-10T21:42:48.191Z,19.00
2018-08-10T21:45:18.374Z,19.00
2018-08-10T21:47:47.011Z,19.00
2018-08-10T21:50:16.109Z,19.10
2018-08-10T21:52:45.815Z,19.10
2018-08-10T21:55:14.686Z,19.10
2018-08-10T21:57:43.191Z,19.10
2018-08-10T22:00:18.893Z,19.10
2018-08-10T22:02:47.521Z,19.20
2018-08-10T22:05:16.570Z,19.20
2018-08-10T22:07:46.292Z,19.20
2018-08-10T22:10:14.883Z,19.20
2018-08-10T22:12:47.565Z,19.20
2018-08-10T22:15:21.782Z,19.20
2018-08-10T22:17:56.801Z,19.20
2018-08-10T22:20:25.804Z,19.20
2018-08-10T22:22:54.434Z,19.20
2018-08-10T22:25:23.321Z,19.20
2018-08-10T22:27:52.804Z,19.20
2018-08-10T22:30:22.115Z,19.20
2018-08-10T22:32:51.095Z,19.20
2018-08-10T22:35:19.622Z,19.20
2018-08-10T22:37:49.132Z,19.20
2018-08-10T22:40:19.447Z,19.10
2018-08-10T22:42:48.862Z,19.20
2018-08-10T22:45:17.407Z,19.10
2018-08-10T22:47:45.904Z,19.10
2018-08-10T22:50:15.185Z,19.10
2018-08-10T22:52:44.489Z,19.00
2018-08-10T22:55:13.976Z,19.00
2018-08-10T22:57:42.544Z,19.00
2018-08-10T23:00:11.076Z,18.90
2018-08-10T23:02:40.497Z,18.90
2018-08-10T23:05:09.410Z,18.90
2018-08-10T23:07:38.966Z,18.90
2018-08-10T23:10:09.136Z,18.90
2018-08-10T23:12:38.740Z,18.80
2018-08-10T23:15:09.290Z,18.80
2018-08-10T23:17:38.246Z,18.80
2018-08-10T23:20:09.036Z,18.80
2018-08-10T23:22:37.794Z,18.80
2018-08-10T23:25:08.154Z,18.70
2018-08-10T23:27:37.106Z,18.70
2018-08-10T23:30:08.051Z,18.70
2018-08-10T23:32:36.579Z,18.70
2018-08-10T23:35:05.276Z,18.70
2018-08-10T23:37:34.279Z,18.60
2018-08-10T23:40:02.899Z,18.70
2018-08-10T23:42:31.434Z,18.70
2018-08-10T23:45:02.132Z,18.60
2018-08-10T23:47:34.033Z,18.60
2018-08-10T23:50:02.606Z,18.60
2018-08-10T23:52:32.157Z,18.60
2018-08-10T23:55:00.878Z,18.70
2018-08-10T23:57:29.416Z,18.70
2018-08-10T23:59:58.384Z,18.70
